createdAt,value
2018-09-14T00:00:37.808Z,12.72
2018-09-14T00:03:07.834Z,12.78
2018-09-14T00:05:37.024Z,12.78
2018-09-14T00:08:06.207Z,12.76
2018-09-14T00:10:35.379Z,12.71
2018-09-14T00:13:04.656Z,12.66
2018-09-14T00:15:33.790Z,12.64
2018-09-14T00:18:03.396Z,12.59
2018-09-14T00:20:32.661Z,12.57
2018-09-14T00:23:01.777Z,12.54
2018-09-14T00:25:30.981Z,12.48
2018-09-14T00:28:00.160Z,12.42
2018-09-14T00:30:29.486Z,12.43
2018-09-14T00:32:58.612Z,12.40
2018-09-14T00:35:27.750Z,12.37
2018-09-14T00:37:57.002Z,12.33
2018-09-14T00:40:26.138Z,12.28
2018-09-14T00:42:55.776Z,12.28
2018-09-14T00:45:24.926Z,12.32
2018-09-14T00:47:54.074Z,12.35
2018-09-14T00:50:23.289Z,12.33
2018-09-14T00:52:52.406Z,12.31
2018-09-14T00:55:21.613Z,12.33
2018-09-14T00:57:50.715Z,12.28
2018-09-14T01:00:19.891Z,12.22
2018-09-14T01:02:49.144Z,12.18
2018-09-14T01:05:18.322Z,12.16
2018-09-14T01:07:47.470Z,12.14
2018-09-14T01:10:16.639Z,12.17
2018-09-14T01:12:45.768Z,12.21
2018-09-14T01:15:14.905Z,12.17
2018-09-14T01:17:44.071Z,12.13
2018-09-14T01:20:13.249Z,12.07
2018-09-14T01:22:42.452Z,12.05
2018-09-14T01:25:11.694Z,12.00
2018-09-14T01:27:40.929Z,11.97
2018-09-14T01:30:10.072Z,11.93
2018-09-14T01:32:39.212Z,11.94
2018-09-14T01:36:13.349Z,11.92
2018-09-14T01:38:42.769Z,11.85
2018-09-14T01:41:11.908Z,11.84
2018-09-14T01:43:41.086Z,11.81
2018-09-14T01:46:10.275Z,11.74
2018-09-14T01:48:39.532Z,11.74
2018-09-14T01:51:08.644Z,11.75
2018-09-14T01:53:37.795Z,11.70
2018-09-14T01:56:06.920Z,11.68
2018-09-14T01:58:36.088Z,11.65
2018-09-14T02:01:05.365Z,11.61
2018-09-14T02:03:34.681Z,11.59
2018-09-14T02:06:03.895Z,11.60
2018-09-14T02:08:33.126Z,11.63
2018-09-14T02:11:02.247Z,11.56
2018-09-14T02:13:31.356Z,11.60
2018-09-14T02:16:00.533Z,11.57
2018-09-14T02:18:29.719Z,11.55
2018-09-14T02:20:58.933Z,11.55
2018-09-14T02:23:28.104Z,11.51
2018-09-14T02:25:57.212Z,11.48
2018-09-14T02:28:26.315Z,11.42
2018-09-14T02:30:55.467Z,11.36
2018-09-14T02:33:24.735Z,11.33
2018-09-14T02:35:53.881Z,11.27
2018-09-14T02:38:23.123Z,11.22
2018-09-14T02:40:52.217Z,11.16
2018-09-14T02:43:22.197Z,11.15
2018-09-14T02:45:51.291Z,11.13
2018-09-14T02:48:20.452Z,11.09
2018-09-14T02:50:49.639Z,11.03
2018-09-14T02:53:18.777Z,11.06
2018-09-14T02:55:48.129Z,11.03
2018-09-14T02:58:17.331Z,11.04
2018-09-14T03:00:46.482Z,11.10
2018-09-14T03:03:15.717Z,11.13
2018-09-14T03:05:44.859Z,11.12
2018-09-14T03:08:14.130Z,11.07
2018-09-14T03:10:43.301Z,10.98
2018-09-14T03:13:12.446Z,10.96
2018-09-14T03:15:41.555Z,10.96
2018-09-14T03:18:10.718Z,10.90
2018-09-14T03:20:39.814Z,10.89
2018-09-14T03:23:08.963Z,10.92
2018-09-14T03:25:38.225Z,10.86
2018-09-14T03:28:07.567Z,10.88
2018-09-14T03:30:36.699Z,10.88
2018-09-14T03:33:06.240Z,10.86
2018-09-14T03:35:35.474Z,10.90
2018-09-14T03:38:04.618Z,10.91
2018-09-14T03:40:33.816Z,10.92
2018-09-14T03:43:02.938Z,10.91
2018-09-14T03:45:32.145Z,10.91
2018-09-14T03:48:01.367Z,10.99
2018-09-14T03:50:30.664Z,10.98
2018-09-14T03:52:59.914Z,11.04
2018-09-14T03:55:29.121Z,11.04
2018-09-14T03:57:58.259Z,11.02
2018-09-14T04:00:27.502Z,11.06
2018-09-14T04:02:56.723Z,11.06
2018-09-14T04:05:26.015Z,11.22
2018-09-14T04:07:55.286Z,11.14
2018-09-14T04:10:24.474Z,11.13
2018-09-14T04:12:53.691Z,11.11
2018-09-14T04:15:22.865Z,11.11
2018-09-14T04:17:52.041Z,11.19
2018-09-14T04:20:21.247Z,11.19
2018-09-14T04:22:50.510Z,11.25
2018-09-14T04:25:19.685Z,11.21
2018-09-14T04:27:48.904Z,11.29
2018-09-14T04:30:18.191Z,11.37
2018-09-14T04:32:47.405Z,11.31
2018-09-14T04:35:16.864Z,11.24
2018-09-14T04:37:46.095Z,11.19
2018-09-14T04:40:15.264Z,11.21
2018-09-14T04:42:44.392Z,11.24
2018-09-14T04:45:13.612Z,11.21
2018-09-14T04:47:42.808Z,11.17
2018-09-14T04:50:12.036Z,11.21
2018-09-14T04:52:41.313Z,11.25
2018-09-14T04:55:10.544Z,11.28
2018-09-14T04:57:39.706Z,11.29
2018-09-14T05:00:08.971Z,11.44
2018-09-14T05:02:38.140Z,11.38
2018-09-14T05:05:07.316Z,11.33
2018-09-14T05:07:36.479Z,11.52
2018-09-14T05:10:06.229Z,11.45
2018-09-14T05:12:35.448Z,11.39
2018-09-14T05:15:04.678Z,11.33
2018-09-14T05:17:33.865Z,11.34
2018-09-14T05:20:03.109Z,11.26
2018-09-14T05:22:32.229Z,11.27
2018-09-14T05:25:01.493Z,11.21
2018-09-14T05:27:30.684Z,11.62
2018-09-14T05:29:59.911Z,11.48
2018-09-14T05:32:29.124Z,11.51
2018-09-14T05:34:58.383Z,11.38
2018-09-14T05:37:27.671Z,11.35
2018-09-14T05:39:56.900Z,11.36
2018-09-14T05:42:26.053Z,11.29
2018-09-14T05:44:55.254Z,11.28
2018-09-14T05:47:24.707Z,11.40
2018-09-14T05:49:53.836Z,11.48
2018-09-14T05:52:23.093Z,11.59
2018-09-14T05:54:52.310Z,11.68
2018-09-14T05:57:21.509Z,11.79
2018-09-14T05:59:50.674Z,12.02
2018-09-14T06:02:19.944Z,12.11
2018-09-14T06:04:49.620Z,12.29
2018-09-14T06:07:19.118Z,12.47
2018-09-14T06:09:48.285Z,12.54
2018-09-14T06:12:17.679Z,12.86
2018-09-14T06:14:46.977Z,12.97
2018-09-14T06:17:16.207Z,12.99
2018-09-14T06:19:45.440Z,13.23
2018-09-14T06:22:14.710Z,13.64
2018-09-14T06:24:43.815Z,13.87
2018-09-14T06:27:13.029Z,14.07
2018-09-14T06:29:42.192Z,14.39
2018-09-14T06:32:11.321Z,14.67
2018-09-14T06:34:40.469Z,14.82
2018-09-14T06:37:09.672Z,14.92
2018-09-14T06:39:38.821Z,14.97
2018-09-14T06:42:07.900Z,15.31
2018-09-14T06:44:37.045Z,15.15
2018-09-14T06:47:06.235Z,15.60
2018-09-14T06:49:35.456Z,15.58
2018-09-14T06:52:04.722Z,15.51
2018-09-14T06:54:33.816Z,15.77
2018-09-14T06:57:02.948Z,15.97
2018-09-14T06:59:32.271Z,15.90
2018-09-14T07:02:01.623Z,16.59
2018-09-14T07:04:30.680Z,16.79
2018-09-14T07:06:59.847Z,16.85
2018-09-14T07:09:29.021Z,16.95
2018-09-14T07:11:58.283Z,17.65
2018-09-14T07:14:27.467Z,17.96
2018-09-14T07:16:56.705Z,18.02
2018-09-14T07:19:25.871Z,17.93
2018-09-14T07:21:55.265Z,18.37
2018-09-14T07:24:24.871Z,18.54
2018-09-14T07:26:53.961Z,18.61
2018-09-14T07:29:23.232Z,19.01
2018-09-14T07:31:52.546Z,19.20
2018-09-14T07:34:21.635Z,19.17
2018-09-14T07:36:50.911Z,19.18
2018-09-14T07:39:20.007Z,19.33
2018-09-14T07:41:49.129Z,19.87
2018-09-14T07:44:18.361Z,19.91
2018-09-14T07:46:47.524Z,19.81
2018-09-14T07:49:16.704Z,19.81
2018-09-14T07:51:45.914Z,19.82
2018-09-14T07:56:57.976Z,20.06
2018-09-14T07:59:27.129Z,20.29
2018-09-14T08:01:56.290Z,20.46
2018-09-14T08:04:25.481Z,20.70
2018-09-14T08:06:54.629Z,20.71
2018-09-14T08:09:23.741Z,21.06
2018-09-14T08:11:52.907Z,21.43
2018-09-14T08:14:22.120Z,21.10
2018-09-14T08:16:51.263Z,21.43
2018-09-14T08:19:20.369Z,21.82
2018-09-14T08:21:49.698Z,21.49
2018-09-14T08:24:18.775Z,21.40
2018-09-14T08:26:48.031Z,21.26
2018-09-14T08:29:17.124Z,21.84
2018-09-14T08:31:46.232Z,22.06
2018-09-14T08:34:15.422Z,22.48
2018-09-14T08:36:44.695Z,22.53
2018-09-14T08:39:13.895Z,22.32
2018-09-14T08:41:43.021Z,22.38
2018-09-14T08:44:12.189Z,22.41
2018-09-14T08:46:41.459Z,22.78
2018-09-14T08:49:10.690Z,22.81
2018-09-14T08:51:39.792Z,23.13
2018-09-14T08:54:09.013Z,22.93
2018-09-14T08:56:38.184Z,23.06
2018-09-14T08:59:07.681Z,23.00
2018-09-14T09:01:36.848Z,23.29
2018-09-14T09:04:06.093Z,23.15
2018-09-14T09:06:35.246Z,23.33
2018-09-14T09:09:06.345Z,23.64
2018-09-14T09:11:35.564Z,23.82
2018-09-14T09:14:04.794Z,23.72
2018-09-14T09:16:34.034Z,23.84
2018-09-14T09:19:03.233Z,23.73
2018-09-14T09:21:32.617Z,24.21
2018-09-14T09:24:01.809Z,24.25
2018-09-14T09:26:31.220Z,24.05
2018-09-14T09:29:00.644Z,23.77
2018-09-14T09:31:29.838Z,24.03
2018-09-14T09:33:58.943Z,24.29
2018-09-14T09:36:28.243Z,24.68
2018-09-14T09:38:57.476Z,24.83
2018-09-14T09:41:26.568Z,24.11
2018-09-14T09:43:55.882Z,24.36
2018-09-14T09:46:25.044Z,24.08
2018-09-14T09:48:54.202Z,24.38
2018-09-14T09:51:23.413Z,25.07
2018-09-14T09:53:52.535Z,24.87
2018-09-14T09:56:21.724Z,25.16
2018-09-14T09:58:50.973Z,24.10
2018-09-14T10:01:25.322Z,25.30
2018-09-14T10:03:59.796Z,25.04
2018-09-14T10:06:29.077Z,24.50
2018-09-14T10:08:58.319Z,24.78
2018-09-14T10:11:27.893Z,25.45
2018-09-14T10:13:57.154Z,25.32
2018-09-14T10:16:26.292Z,25.39
2018-09-14T10:18:55.429Z,25.29
2018-09-14T10:21:24.673Z,25.56
2018-09-14T10:23:53.801Z,25.87
2018-09-14T10:26:22.979Z,25.92
2018-09-14T10:28:52.156Z,26.27
2018-09-14T10:31:21.323Z,26.32
2018-09-14T10:33:50.472Z,26.02
2018-09-14T10:36:19.609Z,25.86
2018-09-14T10:38:48.973Z,25.71
2018-09-14T10:41:18.078Z,26.45
2018-09-14T10:43:47.243Z,26.57
2018-09-14T10:46:16.469Z,26.96
2018-09-14T10:48:45.680Z,26.78
2018-09-14T10:51:14.979Z,25.40
2018-09-14T10:53:44.228Z,26.29
2018-09-14T10:56:13.355Z,25.72
2018-09-14T10:58:42.471Z,25.70
2018-09-14T11:01:14.292Z,25.06
2018-09-14T11:03:43.700Z,24.64
2018-09-14T11:06:13.852Z,24.32
2018-09-14T11:08:43.031Z,23.97
2018-09-14T11:11:12.159Z,23.77
2018-09-14T11:13:41.447Z,24.18
2018-09-14T11:16:10.646Z,24.93
2018-09-14T11:18:39.905Z,25.09
2018-09-14T11:21:09.106Z,24.74
2018-09-14T11:23:38.450Z,24.47
2018-09-14T11:26:07.624Z,24.55
2018-09-14T11:28:36.732Z,24.66
2018-09-14T11:31:06.783Z,24.85
2018-09-14T11:33:35.974Z,25.63
2018-09-14T11:36:05.129Z,25.49
2018-09-14T11:38:34.434Z,25.13
2018-09-14T11:41:03.388Z,24.22
2018-09-14T11:43:32.529Z,25.26
2018-09-14T11:46:01.815Z,25.69
2018-09-14T11:48:30.858Z,26.33
2018-09-14T11:51:00.123Z,25.70
2018-09-14T11:53:29.555Z,25.98
2018-09-14T11:55:58.656Z,26.12
2018-09-14T11:58:27.927Z,25.22
2018-09-14T12:00:57.109Z,24.54
2018-09-14T12:03:26.272Z,24.05
2018-09-14T12:05:55.526Z,23.57
2018-09-14T12:08:24.749Z,23.65
2018-09-14T12:10:53.898Z,24.24
2018-09-14T12:13:23.097Z,24.86
2018-09-14T12:15:52.334Z,25.38
2018-09-14T12:18:21.688Z,25.04
2018-09-14T12:20:50.833Z,25.39
2018-09-14T12:23:19.947Z,25.11
2018-09-14T12:25:49.195Z,25.13
2018-09-14T12:28:18.411Z,25.68
2018-09-14T12:30:47.538Z,25.96
2018-09-14T12:33:16.741Z,26.51
2018-09-14T12:35:46.022Z,26.36
2018-09-14T12:38:15.231Z,26.56
2018-09-14T12:40:44.355Z,26.56
2018-09-14T12:43:13.464Z,26.34
2018-09-14T12:45:42.664Z,25.94
2018-09-14T12:48:11.803Z,25.75
2018-09-14T12:50:40.960Z,25.78
2018-09-14T12:53:10.178Z,25.12
2018-09-14T12:55:39.333Z,25.67
2018-09-14T12:58:08.454Z,25.25
2018-09-14T13:00:37.611Z,25.06
2018-09-14T13:03:06.777Z,25.26
2018-09-14T13:05:35.904Z,25.13
2018-09-14T13:08:05.308Z,25.63
2018-09-14T13:10:34.853Z,24.83
2018-09-14T13:13:03.952Z,25.59
2018-09-14T13:15:33.330Z,25.05
2018-09-14T13:18:02.455Z,25.15
2018-09-14T13:20:31.640Z,25.04
2018-09-14T13:23:00.885Z,25.41
2018-09-14T13:25:30.273Z,25.18
2018-09-14T13:27:59.460Z,24.58
2018-09-14T13:30:28.680Z,24.04
2018-09-14T13:32:57.732Z,23.87
2018-09-14T13:35:27.027Z,24.52
2018-09-14T13:37:56.328Z,24.76
2018-09-14T13:40:25.736Z,24.56
2018-09-14T13:42:54.837Z,24.49
2018-09-14T13:45:24.113Z,23.75
2018-09-14T13:47:53.329Z,23.52
2018-09-14T13:50:22.437Z,23.74
2018-09-14T13:52:51.635Z,23.92
2018-09-14T13:55:20.807Z,24.31
2018-09-14T13:57:49.952Z,24.11
2018-09-14T14:00:19.165Z,24.15
2018-09-14T14:02:48.368Z,23.89
2018-09-14T14:05:17.502Z,24.05
2018-09-14T14:07:46.717Z,24.15
2018-09-14T14:10:15.933Z,24.36
2018-09-14T14:12:45.074Z,24.51
2018-09-14T14:15:14.244Z,24.24
2018-09-14T14:17:43.350Z,23.95
2018-09-14T14:20:12.695Z,23.99
2018-09-14T14:22:41.855Z,23.99
2018-09-14T14:25:11.044Z,23.70
2018-09-14T14:27:40.239Z,23.78
2018-09-14T14:30:09.511Z,24.12
2018-09-14T14:32:38.635Z,23.44
2018-09-14T14:35:08.013Z,23.48
2018-09-14T14:37:37.311Z,23.11
2018-09-14T14:40:06.604Z,23.30
2018-09-14T14:42:35.790Z,22.95
2018-09-14T14:45:05.014Z,22.78
2018-09-14T14:47:34.243Z,22.75
2018-09-14T14:50:03.462Z,22.79
2018-09-14T14:52:32.736Z,22.86
2018-09-14T14:55:02.193Z,22.79
2018-09-14T14:57:31.343Z,22.68
2018-09-14T15:00:00.488Z,22.49
2018-09-14T15:02:29.723Z,22.55
2018-09-14T15:04:59.020Z,22.76
2018-09-14T15:07:28.200Z,22.56
2018-09-14T15:09:57.410Z,22.44
2018-09-14T15:12:26.601Z,22.38
2018-09-14T15:14:55.751Z,22.12
2018-09-14T15:17:25.200Z,21.96
2018-09-14T15:19:54.360Z,21.81
2018-09-14T15:22:23.602Z,21.60
2018-09-14T15:24:52.777Z,21.55
2018-09-14T15:27:21.917Z,21.46
2018-09-14T15:29:51.083Z,21.41
2018-09-14T15:32:20.229Z,21.31
2018-09-14T15:34:49.518Z,21.19
2018-09-14T15:37:18.840Z,21.29
2018-09-14T15:39:48.032Z,21.25
2018-09-14T15:42:17.295Z,21.17
2018-09-14T15:44:46.456Z,21.03
2018-09-14T15:47:15.744Z,21.10
2018-09-14T15:49:45.191Z,21.03
2018-09-14T15:52:14.463Z,20.89
2018-09-14T15:54:43.609Z,20.86
2018-09-14T15:57:12.947Z,20.83
2018-09-14T15:59:42.183Z,20.80
2018-09-14T16:02:11.548Z,20.82
2018-09-14T16:04:40.838Z,20.61
2018-09-14T16:07:10.092Z,20.48
2018-09-14T16:09:39.229Z,20.51
2018-09-14T16:12:08.460Z,20.57
2018-09-14T16:14:37.792Z,20.50
2018-09-14T16:17:07.174Z,20.55
2018-09-14T16:19:36.379Z,20.64
2018-09-14T16:22:05.583Z,20.67
2018-09-14T16:24:34.874Z,20.89
2018-09-14T16:27:04.052Z,20.68
2018-09-14T16:29:39.618Z,20.68
2018-09-14T16:32:08.845Z,20.47
2018-09-14T16:34:37.997Z,20.28
2018-09-14T16:37:07.217Z,20.10
2018-09-14T16:39:36.464Z,19.95
2018-09-14T16:42:07.096Z,19.86
2018-09-14T16:47:16.525Z,19.59
2018-09-14T16:49:45.665Z,19.45
2018-09-14T16:52:14.783Z,19.40
2018-09-14T16:54:44.128Z,19.35
2018-09-14T16:57:13.285Z,19.28
2018-09-14T16:59:42.451Z,19.21
2018-09-14T17:02:11.617Z,19.18
2018-09-14T17:04:40.844Z,19.13
2018-09-14T17:07:10.091Z,19.09
2018-09-14T17:09:39.382Z,19.07
2018-09-14T17:12:09.495Z,19.05
2018-09-14T17:14:39.698Z,18.99
2018-09-14T17:17:09.071Z,18.98
2018-09-14T17:19:38.196Z,18.93
2018-09-14T17:22:07.706Z,18.96
2018-09-14T17:24:36.912Z,18.87
2018-09-14T17:27:06.120Z,18.82
2018-09-14T17:29:35.335Z,18.75
2018-09-14T17:32:05.508Z,18.65
2018-09-14T17:34:34.859Z,18.57
2018-09-14T17:37:04.558Z,18.48
2018-09-14T17:39:33.878Z,18.41
2018-09-14T17:42:03.052Z,18.36
2018-09-14T17:44:32.235Z,18.25
2018-09-14T17:47:01.367Z,18.18
2018-09-14T17:49:30.504Z,18.19
2018-09-14T17:51:59.642Z,18.09
2018-09-14T17:54:28.857Z,18.03
2018-09-14T17:56:58.020Z,17.98
2018-09-14T17:59:29.693Z,17.96
2018-09-14T18:01:58.800Z,17.93
2018-09-14T18:04:27.971Z,17.85
2018-09-14T18:06:57.102Z,17.80
2018-09-14T18:09:26.310Z,17.72
2018-09-14T18:11:55.524Z,17.70
2018-09-14T18:14:24.644Z,17.60
2018-09-14T18:16:53.799Z,17.54
2018-09-14T18:19:22.962Z,17.47
2018-09-14T18:21:52.132Z,17.39
2018-09-14T18:24:22.124Z,17.31
2018-09-14T18:26:51.276Z,17.24
2018-09-14T18:29:20.701Z,17.17
2018-09-14T18:31:49.927Z,17.07
2018-09-14T18:34:19.077Z,17.03
2018-09-14T18:36:48.235Z,16.98
2018-09-14T18:39:17.403Z,16.92
2018-09-14T18:41:46.625Z,16.85
2018-09-14T18:44:15.874Z,16.78
2018-09-14T18:46:45.174Z,16.71
2018-09-14T18:49:14.357Z,16.64
2018-09-14T18:51:43.581Z,16.65
2018-09-14T18:54:12.774Z,16.63
2018-09-14T18:56:41.940Z,16.60
2018-09-14T18:59:11.056Z,16.63
2018-09-14T19:01:40.228Z,16.64
2018-09-14T19:04:09.372Z,16.82
2018-09-14T19:06:38.631Z,16.74
2018-09-14T19:09:09.951Z,16.74
2018-09-14T19:11:39.192Z,16.69
2018-09-14T19:14:08.440Z,16.66
2018-09-14T19:16:37.585Z,16.67
2018-09-14T19:19:06.760Z,16.66
2018-09-14T19:21:35.938Z,16.69
2018-09-14T19:24:05.154Z,16.70
2018-09-14T19:26:34.416Z,16.70
2018-09-14T19:29:03.733Z,16.69
2018-09-14T19:31:32.993Z,16.64
2018-09-14T19:34:02.110Z,16.66
2018-09-14T19:36:31.318Z,16.61
2018-09-14T19:39:00.517Z,16.59
2018-09-14T19:41:29.639Z,16.56
2018-09-14T19:43:58.826Z,16.57
2018-09-14T19:46:27.920Z,16.54
2018-09-14T19:48:57.052Z,16.51
2018-09-14T19:51:26.289Z,16.52
2018-09-14T19:53:55.609Z,16.52
2018-09-14T19:56:24.892Z,16.50
2018-09-14T19:58:54.212Z,16.49
2018-09-14T20:01:23.389Z,16.45
2018-09-14T20:03:52.668Z,16.45
2018-09-14T20:06:22.098Z,16.42
2018-09-14T20:08:51.240Z,16.40
2018-09-14T20:11:20.456Z,16.40
2018-09-14T20:13:49.699Z,16.41
2018-09-14T20:16:19.201Z,16.36
2018-09-14T20:18:48.628Z,16.31
2018-09-14T20:21:17.730Z,16.30
2018-09-14T20:23:47.020Z,16.23
2018-09-14T20:26:16.304Z,16.21
2018-09-14T20:28:45.563Z,16.19
2018-09-14T20:31:14.729Z,16.16
2018-09-14T20:33:44.102Z,16.16
2018-09-14T20:36:13.277Z,16.12
2018-09-14T20:38:43.576Z,16.06
2018-09-14T20:41:12.860Z,15.98
2018-09-14T20:43:42.654Z,15.97
2018-09-14T20:46:12.057Z,15.90
2018-09-14T20:48:41.261Z,15.85
2018-09-14T20:51:10.391Z,15.83
2018-09-14T20:53:39.653Z,15.90
2018-09-14T20:56:08.924Z,15.90
2018-09-14T20:58:38.104Z,15.93
2018-09-14T21:01:08.830Z,15.97
2018-09-14T21:03:38.048Z,15.98
2018-09-14T21:06:07.220Z,16.04
2018-09-14T21:08:36.508Z,16.07
2018-09-14T21:11:05.634Z,16.12
2018-09-14T21:13:34.869Z,16.20
2018-09-14T21:16:04.057Z,16.25
2018-09-14T21:18:33.314Z,16.27
2018-09-14T21:21:02.540Z,16.30
2018-09-14T21:23:31.876Z,16.37
2018-09-14T21:26:01.074Z,16.40
2018-09-14T21:28:30.259Z,16.40
2018-09-14T21:30:59.436Z,16.41
2018-09-14T21:33:28.691Z,16.40
2018-09-14T21:35:58.005Z,16.44
2018-09-14T21:38:27.119Z,16.45
2018-09-14T21:40:56.215Z,16.44
2018-09-14T21:43:25.416Z,16.45
2018-09-14T21:45:54.556Z,16.43
2018-09-14T21:48:23.743Z,16.44
2018-09-14T21:50:52.923Z,16.44
2018-09-14T21:53:22.125Z,16.45
2018-09-14T21:55:51.312Z,16.44
2018-09-14T21:58:20.536Z,16.43
2018-09-14T22:00:55.810Z,16.41
2018-09-14T22:03:25.033Z,16.40
2018-09-14T22:05:54.129Z,16.43
2018-09-14T22:08:23.261Z,16.46
2018-09-14T22:10:52.380Z,16.43
2018-09-14T22:13:21.551Z,16.44
2018-09-14T22:15:50.667Z,16.43
2018-09-14T22:18:19.862Z,16.39
2018-09-14T22:20:49.024Z,16.39
2018-09-14T22:23:18.279Z,16.36
2018-09-14T22:25:47.472Z,16.32
2018-09-14T22:28:16.636Z,16.37
2018-09-14T22:30:45.917Z,16.29
2018-09-14T22:33:15.047Z,16.27
2018-09-14T22:35:44.152Z,16.28
2018-09-14T22:38:13.263Z,16.27
2018-09-14T22:40:42.418Z,16.27
2018-09-14T22:43:11.607Z,16.26
2018-09-14T22:45:40.846Z,16.26
2018-09-14T22:48:10.162Z,16.21
2018-09-14T22:50:39.440Z,16.20
2018-09-14T22:53:08.687Z,16.19
2018-09-14T22:55:38.382Z,16.21
2018-09-14T22:58:07.525Z,16.18
2018-09-14T23:00:44.755Z,16.16
2018-09-14T23:03:13.915Z,16.16
2018-09-14T23:05:43.139Z,16.12
2018-09-14T23:08:12.343Z,16.12
2018-09-14T23:10:41.585Z,16.12
2018-09-14T23:13:10.762Z,16.08
2018-09-14T23:15:44.091Z,16.12
2018-09-14T23:18:13.373Z,16.11
2018-09-14T23:20:42.507Z,16.05
2018-09-14T23:23:11.658Z,16.01
2018-09-14T23:25:40.790Z,15.92
2018-09-14T23:28:09.987Z,15.80
2018-09-14T23:30:39.106Z,15.68
2018-09-14T23:33:08.378Z,15.58
2018-09-14T23:35:37.592Z,15.48
2018-09-14T23:38:06.791Z,15.38
2018-09-14T23:40:35.985Z,15.34
2018-09-14T23:43:05.119Z,15.26
2018-09-14T23:45:34.572Z,15.21
2018-09-14T23:48:03.684Z,15.14
2018-09-14T23:50:32.861Z,15.08
2018-09-14T23:53:02.081Z,15.00
2018-09-14T23:55:31.278Z,14.96
2018-09-14T23:58:00.944Z,14.92
